sensor_id;sensor_type;location;lat;lon;timestamp;pressure;altitude;pressure_sealevel;temperature;humidity
35647;BME280;28680;45.642;13.756;2023-07-09T00:02:16;101634.47;;;24.98;100.00
35647;BME280;28680;45.642;13.756;2023-07-09T00:04:42;101631.25;;;25.09;100.00
35647;BME280;28680;45.642;13.756;2023-07-09T00:09:51;101630.84;;;25.12;100.00
35647;BME280;28680;45.642;13.756;2023-07-09T00:12:18;101626.50;;;25.11;100.00
35647;BME280;28680;45.642;13.756;2023-07-09T00:14:44;101627.94;;;25.07;100.00
35647;BME280;28680;45.642;13.756;2023-07-09T00:17:16;101633.31;;;25.07;100.00
35647;BME280;28680;45.642;13.756;2023-07-09T00:19:45;101631.00;;;25.04;100.00
35647;BME280;28680;45.642;13.756;2023-07-09T00:22:18;101629.91;;;24.98;100.00
35647;BME280;28680;45.642;13.756;2023-07-09T00:24:46;101624.72;;;24.97;100.00
35647;BME280;28680;45.642;13.756;2023-07-09T00:27:14;101626.22;;;24.99;100.00
35647;BME280;28680;45.642;13.756;2023-07-09T00:29:42;101631.69;;;24.91;100.00
35647;BME280;28680;45.642;13.756;2023-07-09T00:32:16;101642.63;;;24.89;100.00
35647;BME280;28680;45.642;13.756;2023-07-09T00:34:44;101636.78;;;24.79;100.00
35647;BME280;28680;45.642;13.756;2023-07-09T00:37:18;101637.16;;;24.76;100.00
35647;BME280;28680;45.642;13.756;2023-07-09T00:39:48;101641.13;;;24.80;100.00
35647;BME280;28680;45.642;13.756;2023-07-09T00:42:17;101648.97;;;24.82;100.00
35647;BME280;28680;45.642;13.756;2023-07-09T00:44:51;101646.53;;;24.87;100.00
35647;BME280;28680;45.642;13.756;2023-07-09T00:47:26;101641.69;;;24.76;100.00
35647;BME280;28680;45.642;13.756;2023-07-09T00:50:39;101647.50;;;24.79;100.00
35647;BME280;28680;45.642;13.756;2023-07-09T00:53:28;101646.06;;;24.77;100.00
35647;BME280;28680;45.642;13.756;2023-07-09T00:56:04;101646.38;;;24.67;100.00
35647;BME280;28680;45.642;13.756;2023-07-09T00:58:33;101645.03;;;24.56;100.00
35647;BME280;28680;45.642;13.756;2023-07-09T01:01:05;101646.47;;;24.59;100.00
35647;BME280;28680;45.642;13.756;2023-07-09T01:03:40;101649.25;;;24.65;100.00
35647;BME280;28680;45.642;13.756;2023-07-09T01:06:08;101648.66;;;24.70;100.00
35647;BME280;28680;45.642;13.756;2023-07-09T01:08:36;101649.25;;;24.65;100.00
35647;BME280;28680;45.642;13.756;2023-07-09T01:11:03;101647.13;;;24.61;100.00
35647;BME280;28680;45.642;13.756;2023-07-09T01:13:34;101645.28;;;24.61;100.00
35647;BME280;28680;45.642;13.756;2023-07-09T01:16:00;101637.44;;;24.60;100.00
35647;BME280;28680;45.642;13.756;2023-07-09T01:18:26;101647.31;;;24.59;100.00
35647;BME280;28680;45.642;13.756;2023-07-09T01:21:02;101642.88;;;24.51;100.00
35647;BME280;28680;45.642;13.756;2023-07-09T01:23:28;101635.28;;;24.55;100.00
35647;BME280;28680;45.642;13.756;2023-07-09T01:25:54;101641.22;;;24.50;100.00
35647;BME280;28680;45.642;13.756;2023-07-09T01:28:21;101638.75;;;24.34;100.00
35647;BME280;28680;45.642;13.756;2023-07-09T01:30:48;101638.75;;;24.34;100.00
35647;BME280;28680;45.642;13.756;2023-07-09T01:33:21;101642.47;;;24.33;100.00
35647;BME280;28680;45.642;13.756;2023-07-09T01:35:47;101639.81;;;24.33;100.00
35647;BME280;28680;45.642;13.756;2023-07-09T01:38:13;101648.56;;;24.27;100.00
35647;BME280;28680;45.642;13.756;2023-07-09T01:40:40;101650.38;;;24.20;100.00
35647;BME280;28680;45.642;13.756;2023-07-09T01:43:07;101651.38;;;24.19;100.00
35647;BME280;28680;45.642;13.756;2023-07-09T01:45:35;101655.16;;;24.24;100.00
35647;BME280;28680;45.642;13.756;2023-07-09T01:48:02;101656.16;;;24.23;100.00
35647;BME280;28680;45.642;13.756;2023-07-09T01:50:28;101653.13;;;24.26;100.00
35647;BME280;28680;45.642;13.756;2023-07-09T01:52:55;101647.25;;;24.38;100.00
35647;BME280;28680;45.642;13.756;2023-07-09T01:55:22;101655.78;;;24.41;100.00
35647;BME280;28680;45.642;13.756;2023-07-09T01:57:47;101653.22;;;24.33;100.00
35647;BME280;28680;45.642;13.756;2023-07-09T02:00:16;101650.97;;;24.37;100.00
35647;BME280;28680;45.642;13.756;2023-07-09T02:02:45;101643.31;;;24.33;100.00
35647;BME280;28680;45.642;13.756;2023-07-09T02:05:14;101650.31;;;24.35;100.00
35647;BME280;28680;45.642;13.756;2023-07-09T02:07:41;101647.22;;;24.31;100.00
35647;BME280;28680;45.642;13.756;2023-07-09T02:10:07;101647.91;;;24.40;100.00
35647;BME280;28680;45.642;13.756;2023-07-09T02:12:34;101652.56;;;24.31;100.00
35647;BME280;28680;45.642;13.756;2023-07-09T02:14:59;101649.22;;;24.29;100.00
35647;BME280;28680;45.642;13.756;2023-07-09T02:17:25;101657.09;;;24.30;100.00
35647;BME280;28680;45.642;13.756;2023-07-09T02:19:51;101659.03;;;24.37;100.00
35647;BME280;28680;45.642;13.756;2023-07-09T02:22:17;101652.28;;;24.26;100.00
35647;BME280;28680;45.642;13.756;2023-07-09T02:24:45;101649.34;;;24.21;100.00
35647;BME280;28680;45.642;13.756;2023-07-09T02:27:16;101653.56;;;24.30;100.00
35647;BME280;28680;45.642;13.756;2023-07-09T02:29:42;101649.97;;;24.23;100.00
35647;BME280;28680;45.642;13.756;2023-07-09T02:32:08;101658.22;;;24.21;100.00
35647;BME280;28680;45.642;13.756;2023-07-09T02:34:34;101661.19;;;24.11;100.00
35647;BME280;28680;45.642;13.756;2023-07-09T02:37:01;101659.06;;;24.22;100.00
35647;BME280;28680;45.642;13.756;2023-07-09T02:39:27;101658.84;;;24.23;100.00
35647;BME280;28680;45.642;13.756;2023-07-09T02:41:53;101654.25;;;24.17;100.00
35647;BME280;28680;45.642;13.756;2023-07-09T02:44:19;101657.56;;;24.19;100.00
35647;BME280;28680;45.642;13.756;2023-07-09T02:46:46;101651.09;;;24.13;100.00
35647;BME280;28680;45.642;13.756;2023-07-09T02:49:14;101660.19;;;24.12;100.00
35647;BME280;28680;45.642;13.756;2023-07-09T02:51:40;101651.09;;;24.13;100.00
35647;BME280;28680;45.642;13.756;2023-07-09T02:54:07;101657.69;;;24.11;100.00
35647;BME280;28680;45.642;13.756;2023-07-09T02:56:33;101651.03;;;24.07;100.00
35647;BME280;28680;45.642;13.756;2023-07-09T02:58:59;101654.53;;;24.07;100.00
35647;BME280;28680;45.642;13.756;2023-07-09T03:01:25;101662.22;;;24.10;100.00
35647;BME280;28680;45.642;13.756;2023-07-09T03:03:56;101655.56;;;24.06;100.00
35647;BME280;28680;45.642;13.756;2023-07-09T03:06:24;101649.13;;;24.01;100.00
35647;BME280;28680;45.642;13.756;2023-07-09T03:08:50;101657.06;;;23.94;100.00
35647;BME280;28680;45.642;13.756;2023-07-09T03:11:17;101663.72;;;23.83;100.00
35647;BME280;28680;45.642;13.756;2023-07-09T03:13:44;101665.56;;;23.83;100.00
35647;BME280;28680;45.642;13.756;2023-07-09T03:16:10;101664.28;;;23.79;100.00
35647;BME280;28680;45.642;13.756;2023-07-09T03:18:36;101671.09;;;23.81;100.00
35647;BME280;28680;45.642;13.756;2023-07-09T03:21:02;101677.97;;;23.84;100.00
35647;BME280;28680;45.642;13.756;2023-07-09T03:23:28;101673.16;;;23.79;100.00
35647;BME280;28680;45.642;13.756;2023-07-09T03:25:55;101678.00;;;23.75;100.00
35647;BME280;28680;45.642;13.756;2023-07-09T03:28:21;101679.69;;;23.77;100.00
35647;BME280;28680;45.642;13.756;2023-07-09T03:30:49;101688.41;;;23.79;100.00
35647;BME280;28680;45.642;13.756;2023-07-09T03:33:16;101688.69;;;23.84;100.00
35647;BME280;28680;45.642;13.756;2023-07-09T03:35:43;101691.56;;;23.82;100.00
35647;BME280;28680;45.642;13.756;2023-07-09T03:38:10;101690.50;;;23.83;100.00
35647;BME280;28680;45.642;13.756;2023-07-09T03:40:37;101686.19;;;23.82;100.00
35647;BME280;28680;45.642;13.756;2023-07-09T03:43:05;101685.34;;;23.82;100.00
35647;BME280;28680;45.642;13.756;2023-07-09T03:45:32;101678.97;;;23.83;100.00
35647;BME280;28680;45.642;13.756;2023-07-09T03:47:58;101689.69;;;23.83;100.00
35647;BME280;28680;45.642;13.756;2023-07-09T03:50:24;101682.94;;;23.87;100.00
35647;BME280;28680;45.642;13.756;2023-07-09T03:52:50;101690.16;;;23.86;100.00
35647;BME280;28680;45.642;13.756;2023-07-09T03:55:16;101681.53;;;23.91;100.00
35647;BME280;28680;45.642;13.756;2023-07-09T03:57:42;101685.91;;;23.92;100.00
35647;BME280;28680;45.642;13.756;2023-07-09T04:00:08;101682.94;;;23.87;100.00
35647;BME280;28680;45.642;13.756;2023-07-09T04:02:38;101679.44;;;23.86;100.00
35647;BME280;28680;45.642;13.756;2023-07-09T04:05:06;101686.19;;;23.82;100.00
35647;BME280;28680;45.642;13.756;2023-07-09T04:07:52;101684.69;;;23.80;100.00
35647;BME280;28680;45.642;13.756;2023-07-09T04:10:18;101671.28;;;23.80;100.00
35647;BME280;28680;45.642;13.756;2023-07-09T04:12:44;101675.53;;;23.89;100.00
35647;BME280;28680;45.642;13.756;2023-07-09T04:15:11;101679.44;;;23.86;100.00
35647;BME280;28680;45.642;13.756;2023-07-09T04:17:40;101673.91;;;23.88;100.00
35647;BME280;28680;45.642;13.756;2023-07-09T04:20:08;101669.19;;;23.90;100.00
35647;BME280;28680;45.642;13.756;2023-07-09T04:22:36;101679.06;;;23.89;100.00
35647;BME280;28680;45.642;13.756;2023-07-09T04:25:04;101683.59;;;23.89;100.00
35647;BME280;28680;45.642;13.756;2023-07-09T04:27:31;101682.75;;;23.88;100.00
35647;BME280;28680;45.642;13.756;2023-07-09T04:29:57;101682.13;;;23.86;100.00
35647;BME280;28680;45.642;13.756;2023-07-09T04:32:23;101687.28;;;23.88;100.00
35647;BME280;28680;45.642;13.756;2023-07-09T04:34:49;101684.03;;;23.92;100.00
35647;BME280;28680;45.642;13.756;2023-07-09T04:37:16;101685.53;;;23.95;100.00
35647;BME280;28680;45.642;13.756;2023-07-09T04:39:45;101683.28;;;23.99;100.00
35647;BME280;28680;45.642;13.756;2023-07-09T04:42:15;101682.94;;;24.02;100.00
35647;BME280;28680;45.642;13.756;2023-07-09T04:44:44;101688.56;;;24.07;100.00
35647;BME280;28680;45.642;13.756;2023-07-09T04:47:10;101683.84;;;24.09;100.00
35647;BME280;28680;45.642;13.756;2023-07-09T04:49:38;101686.53;;;24.09;100.00
35647;BME280;28680;45.642;13.756;2023-07-09T04:52:04;101688.00;;;24.11;100.00
35647;BME280;28680;45.642;13.756;2023-07-09T04:54:31;101683.84;;;24.09;100.00
35647;BME280;28680;45.642;13.756;2023-07-09T04:56:57;101690.31;;;24.15;100.00
35647;BME280;28680;45.642;13.756;2023-07-09T04:59:24;101681.47;;;24.14;100.00
35647;BME280;28680;45.642;13.756;2023-07-09T05:01:50;101679.59;;;24.15;100.00
35647;BME280;28680;45.642;13.756;2023-07-09T05:04:16;101688.47;;;24.15;100.00
35647;BME280;28680;45.642;13.756;2023-07-09T05:06:42;101684.38;;;24.19;100.00
35647;BME280;28680;45.642;13.756;2023-07-09T05:09:08;101684.03;;;24.22;100.00
35647;BME280;28680;45.642;13.756;2023-07-09T05:11:35;101684.56;;;24.18;100.00
35647;BME280;28680;45.642;13.756;2023-07-09T05:14:03;101683.38;;;24.20;100.00
35647;BME280;28680;45.642;13.756;2023-07-09T05:16:29;101676.53;;;24.18;100.00
35647;BME280;28680;45.642;13.756;2023-07-09T05:18:55;101686.53;;;24.09;100.00
35647;BME280;28680;45.642;13.756;2023-07-09T05:21:21;101685.97;;;24.13;100.00
35647;BME280;28680;45.642;13.756;2023-07-09T05:23:47;101686.16;;;24.12;100.00
35647;BME280;28680;45.642;13.756;2023-07-09T05:26:13;101688.28;;;24.17;100.00
35647;BME280;28680;45.642;13.756;2023-07-09T05:28:39;101696.03;;;24.26;100.00
35647;BME280;28680;45.642;13.756;2023-07-09T05:31:05;101697.97;;;24.32;100.00
35647;BME280;28680;45.642;13.756;2023-07-09T05:33:32;101696.59;;;24.37;100.00
35647;BME280;28680;45.642;13.756;2023-07-09T05:35:58;101699.97;;;24.45;100.00
35647;BME280;28680;45.642;13.756;2023-07-09T05:38:24;101709.78;;;24.53;100.00
35647;BME280;28680;45.642;13.756;2023-07-09T05:41:02;101706.34;;;24.59;100.00
35647;BME280;28680;45.642;13.756;2023-07-09T05:43:30;101712.16;;;24.63;100.00
35647;BME280;28680;45.642;13.756;2023-07-09T05:45:57;101711.22;;;24.70;100.00
35647;BME280;28680;45.642;13.756;2023-07-09T05:48:23;101700.94;;;24.74;100.00
35647;BME280;28680;45.642;13.756;2023-07-09T05:50:53;101708.28;;;24.87;100.00
35647;BME280;28680;45.642;13.756;2023-07-09T05:53:19;101710.16;;;25.08;100.00
35647;BME280;28680;45.642;13.756;2023-07-09T05:55:45;101718.50;;;25.20;100.00
35647;BME280;28680;45.642;13.756;2023-07-09T05:58:11;101712.94;;;25.21;100.00
35647;BME280;28680;45.642;13.756;2023-07-09T06:00:37;101712.22;;;25.27;100.00
35647;BME280;28680;45.642;13.756;2023-07-09T06:03:03;101718.47;;;25.35;100.00
35647;BME280;28680;45.642;13.756;2023-07-09T06:05:36;101716.66;;;25.42;100.00
35647;BME280;28680;45.642;13.756;2023-07-09T06:08:03;101719.22;;;25.50;100.00
35647;BME280;28680;45.642;13.756;2023-07-09T06:10:30;101708.69;;;25.55;100.00
35647;BME280;28680;45.642;13.756;2023-07-09T06:12:56;101715.16;;;25.61;100.00
35647;BME280;28680;45.642;13.756;2023-07-09T06:15:25;101716.09;;;25.75;100.00
35647;BME280;28680;45.642;13.756;2023-07-09T06:17:52;101706.78;;;25.77;100.00
35647;BME280;28680;45.642;13.756;2023-07-09T06:20:18;101707.66;;;25.84;100.00
35647;BME280;28680;45.642;13.756;2023-07-09T06:22:43;101707.25;;;25.87;100.00
35647;BME280;28680;45.642;13.756;2023-07-09T06:25:09;101706.69;;;25.92;100.00
35647;BME280;28680;45.642;13.756;2023-07-09T06:27:35;101708.97;;;25.95;100.00
35647;BME280;28680;45.642;13.756;2023-07-09T06:30:01;101709.66;;;26.04;100.00
35647;BME280;28680;45.642;13.756;2023-07-09T06:32:27;101715.84;;;26.04;100.00
35647;BME280;28680;45.642;13.756;2023-07-09T06:34:53;101710.47;;;26.04;100.00
35647;BME280;28680;45.642;13.756;2023-07-09T06:37:19;101713.91;;;25.92;100.00
35647;BME280;28680;45.642;13.756;2023-07-09T06:39:44;101711.56;;;25.82;100.00
35647;BME280;28680;45.642;13.756;2023-07-09T06:42:11;101719.84;;;25.80;100.00
35647;BME280;28680;45.642;13.756;2023-07-09T06:44:37;101720.91;;;25.86;100.00
35647;BME280;28680;45.642;13.756;2023-07-09T06:47:03;101727.16;;;25.93;100.00
35647;BME280;28680;45.642;13.756;2023-07-09T06:49:29;101719.38;;;26.05;100.00
35647;BME280;28680;45.642;13.756;2023-07-09T06:51:54;101717.94;;;26.09;100.00
35647;BME280;28680;45.642;13.756;2023-07-09T06:54:20;101711.38;;;26.18;100.00
35647;BME280;28680;45.642;13.756;2023-07-09T06:56:46;101713.88;;;26.26;100.00
35647;BME280;28680;45.642;13.756;2023-07-09T06:59:12;101711.81;;;26.29;100.00
35647;BME280;28680;45.642;13.756;2023-07-09T07:01:38;101720.34;;;26.39;100.00
35647;BME280;28680;45.642;13.756;2023-07-09T07:04:04;101705.81;;;26.26;100.00
35647;BME280;28680;45.642;13.756;2023-07-09T07:06:30;101712.63;;;26.22;100.00
35647;BME280;28680;45.642;13.756;2023-07-09T07:08:56;101710.34;;;26.19;100.00
35647;BME280;28680;45.642;13.756;2023-07-09T07:11:22;101714.91;;;26.25;100.00
35647;BME280;28680;45.642;13.756;2023-07-09T07:13:48;101706.50;;;26.42;100.00
35647;BME280;28680;45.642;13.756;2023-07-09T07:16:17;101710.66;;;26.51;100.00
35647;BME280;28680;45.642;13.756;2023-07-09T07:18:43;101706.13;;;26.58;100.00
35647;BME280;28680;45.642;13.756;2023-07-09T07:21:08;101707.41;;;26.62;100.00
35647;BME280;28680;45.642;13.756;2023-07-09T07:23:34;101700.59;;;26.60;100.00
35647;BME280;28680;45.642;13.756;2023-07-09T07:26:00;101711.56;;;26.72;100.00
35647;BME280;28680;45.642;13.756;2023-07-09T07:28:26;101709.50;;;26.80;100.00
35647;BME280;28680;45.642;13.756;2023-07-09T07:31:01;101705.41;;;26.84;100.00
35647;BME280;28680;45.642;13.756;2023-07-09T07:33:27;101709.13;;;26.97;100.00
35647;BME280;28680;45.642;13.756;2023-07-09T07:35:53;101708.31;;;27.10;100.00
35647;BME280;28680;45.642;13.756;2023-07-09T07:38:19;101705.41;;;27.18;100.00
35647;BME280;28680;45.642;13.756;2023-07-09T07:40:45;101711.81;;;27.23;100.00
35647;BME280;28680;45.642;13.756;2023-07-09T07:43:11;101706.25;;;27.25;100.00
35647;BME280;28680;45.642;13.756;2023-07-09T07:45:41;101703.75;;;27.37;100.00
35647;BME280;28680;45.642;13.756;2023-07-09T07:48:07;101705.00;;;27.48;100.00
35647;BME280;28680;45.642;13.756;2023-07-09T07:50:33;101701.28;;;27.49;100.00
35647;BME280;28680;45.642;13.756;2023-07-09T07:52:59;101704.59;;;27.51;100.00
35647;BME280;28680;45.642;13.756;2023-07-09T07:55:25;101705.00;;;27.54;100.00
35647;BME280;28680;45.642;13.756;2023-07-09T07:57:51;101693.19;;;27.55;100.00
35647;BME280;28680;45.642;13.756;2023-07-09T08:00:17;101695.63;;;27.64;100.00
35647;BME280;28680;45.642;13.756;2023-07-09T08:02:43;101697.31;;;27.71;100.00
35647;BME280;28680;45.642;13.756;2023-07-09T08:05:09;101692.28;;;27.75;100.00
35647;BME280;28680;45.642;13.756;2023-07-09T08:07:34;101699.31;;;27.83;100.00
35647;BME280;28680;45.642;13.756;2023-07-09T08:10:00;101703.50;;;27.85;100.00
35647;BME280;28680;45.642;13.756;2023-07-09T08:12:26;101696.81;;;27.88;100.00
35647;BME280;28680;45.642;13.756;2023-07-09T08:14:52;101692.88;;;27.97;100.00
35647;BME280;28680;45.642;13.756;2023-07-09T08:17:18;101691.63;;;27.99;100.00
35647;BME280;28680;45.642;13.756;2023-07-09T08:19:50;101689.94;;;28.05;100.00
35647;BME280;28680;45.642;13.756;2023-07-09T08:22:17;101694.94;;;28.08;100.00
35647;BME280;28680;45.642;13.756;2023-07-09T08:24:46;101687.63;;;28.15;100.00
35647;BME280;28680;45.642;13.756;2023-07-09T08:27:12;101688.00;;;28.26;100.00
35647;BME280;28680;45.642;13.756;2023-07-09T08:29:38;101694.59;;;28.30;100.00
35647;BME280;28680;45.642;13.756;2023-07-09T08:32:08;101692.16;;;28.28;100.00
35647;BME280;28680;45.642;13.756;2023-07-09T08:34:34;101702.09;;;28.34;100.00
35647;BME280;28680;45.642;13.756;2023-07-09T08:37:01;101691.69;;;28.38;100.00
35647;BME280;28680;45.642;13.756;2023-07-09T08:39:28;101694.81;;;28.35;100.00
35647;BME280;28680;45.642;13.756;2023-07-09T08:42:03;101689.41;;;28.35;100.00
35647;BME280;28680;45.642;13.756;2023-07-09T08:50:50;101693.50;;;28.44;100.00
35647;BME280;28680;45.642;13.756;2023-07-09T08:53:30;101692.66;;;28.57;100.00
35647;BME280;28680;45.642;13.756;2023-07-09T08:55:58;101692.91;;;28.42;100.00
35647;BME280;28680;45.642;13.756;2023-07-09T08:58:29;101695.59;;;28.49;100.00
35647;BME280;28680;45.642;13.756;2023-07-09T09:01:06;101702.88;;;28.42;100.00
35647;BME280;28680;45.642;13.756;2023-07-09T09:03:55;101702.41;;;28.51;100.00
35647;BME280;28680;45.642;13.756;2023-07-09T09:06:30;101700.09;;;28.62;100.00
35647;BME280;28680;45.642;13.756;2023-07-09T09:11:57;101698.47;;;28.54;100.00
35647;BME280;28680;45.642;13.756;2023-07-09T09:14:42;101706.75;;;28.59;100.00
35647;BME280;28680;45.642;13.756;2023-07-09T09:17:19;101712.06;;;28.72;100.00
35647;BME280;28680;45.642;13.756;2023-07-09T09:20:01;101715.09;;;28.83;100.00
35647;BME280;28680;45.642;13.756;2023-07-09T09:22:50;101711.72;;;28.94;100.00
35647;BME280;28680;45.642;13.756;2023-07-09T09:25:28;101718.28;;;29.05;100.00
35647;BME280;28680;45.642;13.756;2023-07-09T09:27:55;101721.00;;;29.30;100.00
35647;BME280;28680;45.642;13.756;2023-07-09T09:30:29;101713.91;;;29.35;100.00
35647;BME280;28680;45.642;13.756;2023-07-09T09:33:02;101718.44;;;29.42;100.00
35647;BME280;28680;45.642;13.756;2023-07-09T09:35:35;101718.97;;;29.50;100.00
35647;BME280;28680;45.642;13.756;2023-07-09T09:38:09;101717.53;;;29.73;100.00
35647;BME280;28680;45.642;13.756;2023-07-09T09:40:36;101715.50;;;29.87;100.00
35647;BME280;28680;45.642;13.756;2023-07-09T09:43:09;101714.00;;;29.91;100.00
35647;BME280;28680;45.642;13.756;2023-07-09T09:45:39;101717.81;;;30.02;100.00
35647;BME280;28680;45.642;13.756;2023-07-09T09:48:27;101714.06;;;29.84;100.00
35647;BME280;28680;45.642;13.756;2023-07-09T09:50:54;101720.94;;;29.87;100.00
35647;BME280;28680;45.642;13.756;2023-07-09T09:53:24;101723.59;;;30.05;100.00
35647;BME280;28680;45.642;13.756;2023-07-09T09:55:55;101717.25;;;30.30;100.00
35647;BME280;28680;45.642;13.756;2023-07-09T09:58:29;101719.97;;;30.30;100.00
35647;BME280;28680;45.642;13.756;2023-07-09T10:00:58;101706.00;;;30.33;100.00
35647;BME280;28680;45.642;13.756;2023-07-09T10:03:37;101707.25;;;30.49;100.00
35647;BME280;28680;45.642;13.756;2023-07-09T10:06:16;101714.47;;;30.55;100.00
35647;BME280;28680;45.642;13.756;2023-07-09T10:12:41;101708.13;;;30.92;100.00
35647;BME280;28680;45.642;13.756;2023-07-09T10:15:41;101712.88;;;31.08;100.00
35647;BME280;28680;45.642;13.756;2023-07-09T10:27:32;101731.06;;;31.66;100.00
35647;BME280;28680;45.642;13.756;2023-07-09T10:33:13;101722.59;;;32.15;100.00
35647;BME280;28680;45.642;13.756;2023-07-09T10:35:53;101724.28;;;32.04;100.00
35647;BME280;28680;45.642;13.756;2023-07-09T10:40:57;101720.84;;;32.38;100.00
35647;BME280;28680;45.642;13.756;2023-07-09T10:46:05;101712.16;;;32.53;100.00
35647;BME280;28680;45.642;13.756;2023-07-09T10:49:00;101713.63;;;32.43;100.00
35647;BME280;28680;45.642;13.756;2023-07-09T10:51:33;101710.19;;;32.77;100.00
35647;BME280;28680;45.642;13.756;2023-07-09T10:54:03;101714.41;;;32.85;100.00
35647;BME280;28680;45.642;13.756;2023-07-09T10:56:36;101710.34;;;32.87;100.00
35647;BME280;28680;45.642;13.756;2023-07-09T10:59:26;101713.03;;;33.33;100.00
35647;BME280;28680;45.642;13.756;2023-07-09T11:02:19;101715.66;;;33.28;100.00
35647;BME280;28680;45.642;13.756;2023-07-09T11:04:55;101713.59;;;33.01;100.00
35647;BME280;28680;45.642;13.756;2023-07-09T11:10:25;101713.75;;;33.11;100.00
35647;BME280;28680;45.642;13.756;2023-07-09T11:15:36;101703.38;;;32.91;100.00
35647;BME280;28680;45.642;13.756;2023-07-09T11:18:06;101702.25;;;32.58;100.00
35647;BME280;28680;45.642;13.756;2023-07-09T11:20:43;101707.72;;;32.92;100.00
35647;BME280;28680;45.642;13.756;2023-07-09T11:23:21;101706.19;;;33.13;100.00
35647;BME280;28680;45.642;13.756;2023-07-09T11:26:02;101705.13;;;33.14;100.00
35647;BME280;28680;45.642;13.756;2023-07-09T11:28:36;101705.50;;;33.23;100.00
35647;BME280;28680;45.642;13.756;2023-07-09T11:31:08;101700.31;;;33.05;100.00
35647;BME280;28680;45.642;13.756;2023-07-09T11:33:48;101698.19;;;33.24;100.00
35647;BME280;28680;45.642;13.756;2023-07-09T11:36:26;101702.19;;;33.04;100.00
35647;BME280;28680;45.642;13.756;2023-07-09T11:38:53;101695.69;;;33.39;100.00
35647;BME280;28680;45.642;13.756;2023-07-09T11:41:39;101692.41;;;33.37;100.00
35647;BME280;28680;45.642;13.756;2023-07-09T11:44:21;101698.94;;;33.19;100.00
35647;BME280;28680;45.642;13.756;2023-07-09T11:49:55;101690.41;;;32.98;100.00
35647;BME280;28680;45.642;13.756;2023-07-09T11:52:43;101687.13;;;32.79;100.00
35647;BME280;28680;45.642;13.756;2023-07-09T11:58:00;101681.47;;;32.52;100.00
35647;BME280;28680;45.642;13.756;2023-07-09T12:00:50;101689.69;;;32.40;100.00
35647;BME280;28680;45.642;13.756;2023-07-09T12:03:36;101687.19;;;32.68;100.00
35647;BME280;28680;45.642;13.756;2023-07-09T12:06:17;101679.41;;;33.22;100.00
35647;BME280;28680;45.642;13.756;2023-07-09T12:08:45;101686.06;;;33.31;100.00
35647;BME280;28680;45.642;13.756;2023-07-09T12:13:50;101681.94;;;33.68;100.00
35647;BME280;28680;45.642;13.756;2023-07-09T12:16:31;101677.28;;;33.46;100.00
35647;BME280;28680;45.642;13.756;2023-07-09T12:18:58;101672.44;;;33.48;100.00
35647;BME280;28680;45.642;13.756;2023-07-09T12:21:25;101678.38;;;33.28;100.00
35647;BME280;28680;45.642;13.756;2023-07-09T12:23:53;101675.53;;;33.01;100.00
35647;BME280;28680;45.642;13.756;2023-07-09T12:26:20;101679.47;;;32.93;100.00
35647;BME280;28680;45.642;13.756;2023-07-09T12:28:54;101678.16;;;33.30;100.00
35647;BME280;28680;45.642;13.756;2023-07-09T12:31:29;101680.28;;;33.67;100.00
35647;BME280;28680;45.642;13.756;2023-07-09T12:33:58;101680.25;;;33.45;100.00
35647;BME280;28680;45.642;13.756;2023-07-09T12:36:26;101675.63;;;33.45;100.00
35647;BME280;28680;45.642;13.756;2023-07-09T12:39:00;101676.06;;;33.37;100.00
35647;BME280;28680;45.642;13.756;2023-07-09T12:41:45;101670.31;;;33.33;100.00
35647;BME280;28680;45.642;13.756;2023-07-09T12:44:21;101675.09;;;33.26;100.00
35647;BME280;28680;45.642;13.756;2023-07-09T12:46:50;101674.53;;;33.24;100.00
35647;BME280;28680;45.642;13.756;2023-07-09T12:49:29;101674.19;;;33.20;100.00
35647;BME280;28680;45.642;13.756;2023-07-09T12:52:02;101672.94;;;32.94;100.00
35647;BME280;28680;45.642;13.756;2023-07-09T12:54:29;101668.19;;;32.85;100.00
35647;BME280;28680;45.642;13.756;2023-07-09T12:56:59;101665.94;;;32.81;100.00
35647;BME280;28680;45.642;13.756;2023-07-09T12:59:35;101660.50;;;32.64;100.00
35647;BME280;28680;45.642;13.756;2023-07-09T13:02:25;101660.56;;;32.53;100.00
35647;BME280;28680;45.642;13.756;2023-07-09T13:05:02;101653.28;;;32.41;100.00
35647;BME280;28680;45.642;13.756;2023-07-09T13:07:37;101655.00;;;32.59;100.00
35647;BME280;28680;45.642;13.756;2023-07-09T13:10:23;101654.34;;;32.69;100.00
35647;BME280;28680;45.642;13.756;2023-07-09T13:12:53;101652.13;;;32.83;100.00
35647;BME280;28680;45.642;13.756;2023-07-09T13:15:59;101655.69;;;32.55;100.00
35647;BME280;28680;45.642;13.756;2023-07-09T13:18:17;101650.72;;;32.80;100.00
35647;BME280;28680;45.642;13.756;2023-07-09T13:20:45;101645.38;;;32.69;100.00
35647;BME280;28680;45.642;13.756;2023-07-09T13:23:17;101636.91;;;32.53;100.00
35647;BME280;28680;45.642;13.756;2023-07-09T13:25:44;101647.47;;;32.50;100.00
35647;BME280;28680;45.642;13.756;2023-07-09T13:28:29;101642.72;;;32.91;88.81
35647;BME280;28680;45.642;13.756;2023-07-09T13:31:19;101651.31;;;33.16;87.74
35647;BME280;28680;45.642;13.756;2023-07-09T13:33:57;101647.75;;;32.99;100.00